createdAt,value
2023-03-25T00:00:57.982Z,7.10
2023-03-25T00:05:49.999Z,8.77
2023-03-25T00:10:41.766Z,6.35
2023-03-25T00:15:36.413Z,8.45
2023-03-25T00:20:28.138Z,9.10
2023-03-25T00:25:20.844Z,4.90
2023-03-25T00:30:12.949Z,3.03
2023-03-25T00:35:05.649Z,6.63
2023-03-25T00:39:57.368Z,4.88
2023-03-25T00:44:49.115Z,4.53
2023-03-25T00:49:40.903Z,3.40
2023-03-25T00:54:34.387Z,5.20
2023-03-25T00:59:25.988Z,4.05
2023-03-25T01:04:18.205Z,5.60
2023-03-25T01:09:13.807Z,3.42
2023-03-25T01:14:08.325Z,8.15
2023-03-25T01:19:00.108Z,4.47
2023-03-25T01:23:51.936Z,5.03
2023-03-25T01:28:44.560Z,7.10
2023-03-25T01:33:36.697Z,4.65
2023-03-25T01:38:30.469Z,2.88
2023-03-25T01:43:22.337Z,2.90
2023-03-25T01:48:35.854Z,4.40
2023-03-25T01:53:31.198Z,3.35
2023-03-25T01:58:24.583Z,4.10
2023-03-25T02:03:20.831Z,3.88
2023-03-25T02:08:15.988Z,2.85
2023-03-25T02:13:07.884Z,5.10
2023-03-25T02:18:14.826Z,4.95
2023-03-25T02:23:42.388Z,2.63
2023-03-25T02:28:47.408Z,4.72
2023-03-25T02:33:50.801Z,2.58
2023-03-25T02:38:45.311Z,4.65
2023-03-25T02:43:39.563Z,3.80
2023-03-25T02:48:37.902Z,3.45
2023-03-25T02:53:35.050Z,4.72
2023-03-25T02:58:29.982Z,4.53
2023-03-25T03:03:21.808Z,2.60
2023-03-25T03:08:41.622Z,4.70
2023-03-25T03:13:48.582Z,1.17
2023-03-25T03:18:48.541Z,0.82
2023-03-25T03:23:52.291Z,0.90
2023-03-25T03:28:50.507Z,1.80
2023-03-25T03:34:10.599Z,2.63
2023-03-25T03:39:07.445Z,1.30
2023-03-25T03:44:08.184Z,1.75
2023-03-25T03:49:03.088Z,2.30
2023-03-25T03:54:08.858Z,1.45
2023-03-25T03:59:04.042Z,2.42
2023-03-25T04:04:00.080Z,0.68
2023-03-25T04:09:07.892Z,0.73
2023-03-25T04:14:02.656Z,1.20
2023-03-25T04:18:55.262Z,0.28
2023-03-25T04:23:46.964Z,1.10
2023-03-25T04:28:41.906Z,0.65
2023-03-25T04:33:33.499Z,0.10
2023-03-25T04:38:25.384Z,0.22
2023-03-25T04:43:17.652Z,0.38
2023-03-25T04:48:41.709Z,0.30
2023-03-25T04:53:33.350Z,0.40
2023-03-25T04:58:25.103Z,1.48
2023-03-25T05:03:18.175Z,0.98
2023-03-25T05:08:11.669Z,1.25
2023-03-25T05:13:07.565Z,3.13
2023-03-25T05:17:59.324Z,1.58
2023-03-25T05:22:53.676Z,2.53
2023-03-25T05:27:46.851Z,2.47
2023-03-25T05:32:41.441Z,1.15
2023-03-25T05:37:33.386Z,0.57
2023-03-25T05:42:25.488Z,1.23
2023-03-25T05:47:26.411Z,1.10
2023-03-25T05:52:19.386Z,1.52
2023-03-25T05:57:12.401Z,0.50
2023-03-25T06:02:04.331Z,2.25
2023-03-25T06:06:56.435Z,0.47
2023-03-25T06:11:53.445Z,2.40
2023-03-25T06:16:45.046Z,0.55
2023-03-25T06:21:37.090Z,2.10
2023-03-25T06:26:28.742Z,1.15
2023-03-25T06:31:26.869Z,1.05
2023-03-25T06:41:10.995Z,0.95
2023-03-25T06:46:03.194Z,4.45
2023-03-25T06:50:55.010Z,0.70
2023-03-25T06:55:48.126Z,1.05
2023-03-25T07:00:42.182Z,1.42
2023-03-25T07:05:34.996Z,0.88
2023-03-25T07:10:27.409Z,1.55
2023-03-25T07:15:21.054Z,0.55
2023-03-25T07:20:14.500Z,0.80
2023-03-25T07:25:07.833Z,0.75
2023-03-25T07:29:59.518Z,0.88
2023-03-25T07:34:51.330Z,0.28
2023-03-25T07:39:43.078Z,1.08
2023-03-25T07:44:34.712Z,2.05
2023-03-25T07:49:26.422Z,2.20
2023-03-25T07:54:18.087Z,0.30
2023-03-25T07:59:09.768Z,1.67
2023-03-25T08:04:01.428Z,1.85
2023-03-25T08:08:53.577Z,4.07
2023-03-25T08:13:45.143Z,2.60
2023-03-25T08:18:38.435Z,3.67
2023-03-25T08:23:30.110Z,3.13
2023-03-25T08:28:23.360Z,2.22
2023-03-25T08:33:16.778Z,1.08
2023-03-25T08:38:09.217Z,1.17
2023-03-25T08:43:01.134Z,1.42
2023-03-25T08:47:53.016Z,0.85
2023-03-25T08:52:44.664Z,1.75
2023-03-25T08:57:36.481Z,0.35
2023-03-25T09:02:28.464Z,4.63
2023-03-25T09:07:20.304Z,2.17
2023-03-25T09:12:12.123Z,1.15
2023-03-25T09:17:06.109Z,1.65
2023-03-25T09:21:57.771Z,1.45
2023-03-25T09:26:49.712Z,0.52
2023-03-25T09:31:41.491Z,2.40
2023-03-25T09:36:33.112Z,1.83
2023-03-25T09:42:13.029Z,2.28
2023-03-25T09:47:06.068Z,1.27
2023-03-25T09:51:57.742Z,1.63
2023-03-25T09:56:51.396Z,1.27
2023-03-25T10:02:04.814Z,2.40
2023-03-25T10:07:25.347Z,1.23
2023-03-25T10:12:38.701Z,1.83
2023-03-25T10:17:36.519Z,2.55
2023-03-25T10:27:39.926Z,0.73
2023-03-25T10:32:38.597Z,0.55
2023-03-25T10:37:33.906Z,1.00
2023-03-25T10:42:47.635Z,1.60
2023-03-25T10:47:40.864Z,1.65
2023-03-25T10:52:32.693Z,1.17
2023-03-25T10:57:28.742Z,2.70
2023-03-25T11:02:23.133Z,1.95
2023-03-25T11:07:22.417Z,1.42
2023-03-25T11:12:19.233Z,2.58
2023-03-25T11:17:17.259Z,1.70
2023-03-25T11:22:13.020Z,2.28
2023-03-25T11:27:08.097Z,1.77
2023-03-25T11:32:06.031Z,0.70
2023-03-25T11:37:04.726Z,0.55
2023-03-25T11:41:58.737Z,1.70
2023-03-25T11:46:54.380Z,0.50
2023-03-25T11:51:46.629Z,1.23
2023-03-25T11:56:44.974Z,1.08
2023-03-25T12:01:48.186Z,2.17
2023-03-25T12:06:54.634Z,2.47
2023-03-25T12:12:06.526Z,0.85
2023-03-25T12:17:05.480Z,0.73
2023-03-25T12:22:15.610Z,0.45
2023-03-25T12:27:16.227Z,0.80
2023-03-25T12:32:16.750Z,0.40
2023-03-25T12:37:25.401Z,0.75
2023-03-25T12:42:30.786Z,0.30
2023-03-25T12:47:29.540Z,0.75
2023-03-25T12:52:26.981Z,2.72
2023-03-25T12:57:56.132Z,2.05
2023-03-25T13:02:54.240Z,2.58
2023-03-25T13:07:54.089Z,1.05
2023-03-25T13:12:57.138Z,1.73
2023-03-25T13:17:56.019Z,1.10
2023-03-25T13:22:52.491Z,1.20
2023-03-25T13:27:45.062Z,4.55
2023-03-25T13:32:48.335Z,1.67
2023-03-25T13:37:49.665Z,3.13
2023-03-25T13:42:59.876Z,1.95
2023-03-25T13:48:01.253Z,2.63
2023-03-25T13:53:00.470Z,0.85
2023-03-25T13:58:11.143Z,2.05
2023-03-25T14:03:26.049Z,1.42
2023-03-25T14:08:38.939Z,0.95
2023-03-25T14:13:36.606Z,0.82
2023-03-25T14:18:32.304Z,1.42
2023-03-25T14:23:26.330Z,3.15
2023-03-25T14:28:21.540Z,3.13
2023-03-25T14:33:13.419Z,2.08
2023-03-25T14:38:08.138Z,3.80
2023-03-25T14:43:00.529Z,1.40
2023-03-25T14:47:55.851Z,2.05
2023-03-25T14:52:53.000Z,2.90
2023-03-25T14:57:45.663Z,0.83
2023-03-25T15:02:38.260Z,1.77
2023-03-25T15:07:43.007Z,1.60
2023-03-25T15:12:38.825Z,1.35
2023-03-25T15:17:44.783Z,1.33
2023-03-25T15:22:38.083Z,1.50
2023-03-25T15:27:47.821Z,0.50
2023-03-25T15:32:52.734Z,2.70
2023-03-25T15:38:00.333Z,2.58
2023-03-25T15:48:41.787Z,2.13
2023-03-25T15:53:54.633Z,1.50
2023-03-25T15:58:58.569Z,4.35
2023-03-25T16:04:10.067Z,1.48
2023-03-25T16:09:03.114Z,2.45
2023-03-25T16:14:13.101Z,1.90
2023-03-25T16:19:08.393Z,4.93
2023-03-25T16:24:05.149Z,0.85
2023-03-25T16:29:07.852Z,2.40
2023-03-25T16:34:00.500Z,2.65
2023-03-25T16:38:52.448Z,3.55
2023-03-25T16:43:44.471Z,2.00
2023-03-25T16:48:39.837Z,4.65
2023-03-25T16:53:40.007Z,1.83
2023-03-25T16:58:33.874Z,4.75
2023-03-25T17:04:19.445Z,5.00
2023-03-25T17:09:18.401Z,7.35
2023-03-25T17:14:18.205Z,3.28
2023-03-25T17:19:14.321Z,2.95
2023-03-25T17:24:22.388Z,2.72
2023-03-25T17:29:14.554Z,2.65
2023-03-25T17:34:06.727Z,4.70
2023-03-25T17:39:00.812Z,8.02
2023-03-25T17:43:56.268Z,5.60
2023-03-25T17:48:50.343Z,7.95
2023-03-25T17:53:41.993Z,7.85
2023-03-25T17:58:33.680Z,7.82
2023-03-25T18:03:31.413Z,7.63
2023-03-25T18:08:24.997Z,3.10
2023-03-25T18:13:16.810Z,4.95
2023-03-25T18:18:16.052Z,3.38
2023-03-25T18:23:07.683Z,5.28
2023-03-25T18:27:59.671Z,7.07
2023-03-25T18:32:51.417Z,5.07
2023-03-25T18:37:43.248Z,6.97
2023-03-25T18:42:34.824Z,11.70
2023-03-25T18:47:26.550Z,8.68
2023-03-25T18:52:18.187Z,5.80
2023-03-25T18:57:09.944Z,5.95
2023-03-25T19:02:01.647Z,5.35
2023-03-25T19:06:53.830Z,16.23
2023-03-25T19:11:47.095Z,7.00
2023-03-25T19:16:38.723Z,6.57
2023-03-25T19:21:30.530Z,8.27
2023-03-25T19:26:22.808Z,12.32
2023-03-25T19:31:16.452Z,6.95
2023-03-25T19:36:15.081Z,9.25
2023-03-25T19:41:09.384Z,10.23
2023-03-25T19:46:03.370Z,5.57
2023-03-25T19:50:55.808Z,8.05
2023-03-25T19:55:47.526Z,5.75
2023-03-25T20:00:39.632Z,12.93
2023-03-25T20:05:32.698Z,9.27
2023-03-25T20:10:27.935Z,9.65
2023-03-25T20:15:21.165Z,21.80
2023-03-25T20:20:13.629Z,15.75
2023-03-25T20:25:07.142Z,13.30
2023-03-25T20:29:58.993Z,9.05
2023-03-25T20:34:50.969Z,13.23
2023-03-25T20:39:42.884Z,5.53
2023-03-25T20:44:35.326Z,7.85
2023-03-25T20:49:27.339Z,9.95
2023-03-25T20:54:19.125Z,7.03
2023-03-25T20:59:13.887Z,7.90
2023-03-25T21:04:06.435Z,10.25
2023-03-25T21:09:01.042Z,13.52
2023-03-25T21:13:57.326Z,7.88
2023-03-25T21:18:50.353Z,8.88
2023-03-25T21:23:43.815Z,15.93
2023-03-25T21:28:40.216Z,5.35
2023-03-25T21:33:33.721Z,14.52
2023-03-25T21:38:28.772Z,8.80
2023-03-25T21:43:21.099Z,11.02
2023-03-25T21:48:12.841Z,11.38
2023-03-25T21:53:06.342Z,16.42
2023-03-25T21:57:59.540Z,14.25
2023-03-25T22:02:58.401Z,10.63
2023-03-25T22:07:50.071Z,13.80
2023-03-25T22:12:41.775Z,9.35
2023-03-25T22:17:33.536Z,8.60
2023-03-25T22:22:25.377Z,11.57
2023-03-25T22:27:17.220Z,10.90
2023-03-25T22:32:09.113Z,12.05
2023-03-25T22:37:01.463Z,7.15
2023-03-25T22:41:54.382Z,12.25
2023-03-25T22:46:48.406Z,11.52
2023-03-25T22:51:40.407Z,9.80
2023-03-25T22:56:35.492Z,8.98
2023-03-25T23:01:28.696Z,15.68
2023-03-25T23:06:22.036Z,8.40
2023-03-25T23:11:17.361Z,8.65
2023-03-25T23:16:12.700Z,7.80
2023-03-25T23:21:04.584Z,12.38
2023-03-25T23:26:07.448Z,13.95
2023-03-25T23:30:59.194Z,9.07
2023-03-25T23:35:51.240Z,4.90
2023-03-25T23:40:43.355Z,10.93
2023-03-25T23:45:34.951Z,4.22
2023-03-25T23:50:26.737Z,13.75
2023-03-25T23:55:20.671Z,9.45
